sensor_id;sensor_type;location;lat;lon;timestamp;pressure;altitude;pressure_sealevel;temperature;humidity
77360;BME280;66426;51.454;7.266;2023-08-01T00:00:12;98483.53;;;16.16;nan
77360;BME280;66426;51.454;7.266;2023-08-01T00:01:13;98472.53;;;16.17;nan
77360;BME280;66426;51.454;7.266;2023-08-01T00:02:14;98485.22;;;16.17;nan
77360;BME280;66426;51.454;7.266;2023-08-01T00:03:15;98472.97;;;16.13;nan
77360;BME280;66426;51.454;7.266;2023-08-01T00:04:16;98476.41;;;16.15;nan
77360;BME280;66426;51.454;7.266;2023-08-01T00:05:17;98479.41;;;16.12;nan
77360;BME280;66426;51.454;7.266;2023-08-01T00:06:18;98472.41;;;16.09;nan
77360;BME280;66426;51.454;7.266;2023-08-01T00:07:20;98480.75;;;16.08;nan
77360;BME280;66426;51.454;7.266;2023-08-01T00:08:21;98480.25;;;16.12;nan
77360;BME280;66426;51.454;7.266;2023-08-01T00:09:22;98487.41;;;16.13;nan
77360;BME280;66426;51.454;7.266;2023-08-01T00:10:23;98488.00;;;16.07;nan
77360;BME280;66426;51.454;7.266;2023-08-01T00:11:25;98490.44;;;16.10;nan
77360;BME280;66426;51.454;7.266;2023-08-01T00:12:26;98493.31;;;16.09;nan
77360;BME280;66426;51.454;7.266;2023-08-01T00:13:27;98494.47;;;16.06;nan
77360;BME280;66426;51.454;7.266;2023-08-01T00:14:28;98491.03;;;16.04;nan
77360;BME280;66426;51.454;7.266;2023-08-01T00:15:29;98485.84;;;16.11;nan
77360;BME280;66426;51.454;7.266;2023-08-01T00:16:30;98484.44;;;16.07;nan
77360;BME280;66426;51.454;7.266;2023-08-01T00:17:33;98477.13;;;16.07;nan
77360;BME280;66426;51.454;7.266;2023-08-01T00:18:34;98468.06;;;15.99;nan
77360;BME280;66426;51.454;7.266;2023-08-01T00:19:35;98457.91;;;16.01;nan
77360;BME280;66426;51.454;7.266;2023-08-01T00:20:35;98467.44;;;16.05;nan
77360;BME280;66426;51.454;7.266;2023-08-01T00:21:36;98458.44;;;16.04;nan
77360;BME280;66426;51.454;7.266;2023-08-01T00:22:37;98471.31;;;16.02;nan
77360;BME280;66426;51.454;7.266;2023-08-01T00:23:38;98458.63;;;16.03;nan
77360;BME280;66426;51.454;7.266;2023-08-01T00:24:39;98452.84;;;15.88;nan
77360;BME280;66426;51.454;7.266;2023-08-01T00:25:40;98453.25;;;15.93;nan
77360;BME280;66426;51.454;7.266;2023-08-01T00:26:42;98448.53;;;15.95;nan
77360;BME280;66426;51.454;7.266;2023-08-01T00:27:43;98449.38;;;15.95;nan
77360;BME280;66426;51.454;7.266;2023-08-01T00:28:44;98439.88;;;16.00;nan
77360;BME280;66426;51.454;7.266;2023-08-01T00:29:45;98440.44;;;16.03;nan
77360;BME280;66426;51.454;7.266;2023-08-01T00:30:46;98443.84;;;15.87;nan
77360;BME280;66426;51.454;7.266;2023-08-01T00:31:47;98449.38;;;15.95;nan
77360;BME280;66426;51.454;7.266;2023-08-01T00:32:48;98443.94;;;15.95;nan
77360;BME280;66426;51.454;7.266;2023-08-01T00:33:48;98433.22;;;15.94;nan
77360;BME280;66426;51.454;7.266;2023-08-01T00:34:50;98443.22;;;15.93;nan
77360;BME280;66426;51.454;7.266;2023-08-01T00:35:53;98440.19;;;15.96;nan
77360;BME280;66426;51.454;7.266;2023-08-01T00:36:54;98448.53;;;15.95;nan
77360;BME280;66426;51.454;7.266;2023-08-01T00:37:54;98446.94;;;15.92;nan
77360;BME280;66426;51.454;7.266;2023-08-01T00:38:55;98451.00;;;15.88;nan
77360;BME280;66426;51.454;7.266;2023-08-01T00:39:56;98445.16;;;15.83;nan
77360;BME280;66426;51.454;7.266;2023-08-01T00:40:57;98451.91;;;15.79;nan
77360;BME280;66426;51.454;7.266;2023-08-01T00:41:59;98454.47;;;15.81;nan
77360;BME280;66426;51.454;7.266;2023-08-01T00:43:00;98450.19;;;15.78;nan
77360;BME280;66426;51.454;7.266;2023-08-01T00:44:01;98446.31;;;15.81;nan
77360;BME280;66426;51.454;7.266;2023-08-01T00:45:02;98439.38;;;15.68;nan
77360;BME280;66426;51.454;7.266;2023-08-01T00:46:04;98443.66;;;15.71;nan
77360;BME280;66426;51.454;7.266;2023-08-01T00:47:05;98446.59;;;15.50;nan
77360;BME280;66426;51.454;7.266;2023-08-01T00:48:06;98436.75;;;15.49;nan
77360;BME280;66426;51.454;7.266;2023-08-01T00:49:07;98433.91;;;15.50;nan
77360;BME280;66426;51.454;7.266;2023-08-01T00:50:09;98428.88;;;15.56;nan
77360;BME280;66426;51.454;7.266;2023-08-01T00:51:10;98418.00;;;15.56;nan
77360;BME280;66426;51.454;7.266;2023-08-01T00:52:12;98421.72;;;15.54;nan
77360;BME280;66426;51.454;7.266;2023-08-01T00:53:13;98435.97;;;15.39;nan
77360;BME280;66426;51.454;7.266;2023-08-01T00:54:14;98428.53;;;15.41;nan
77360;BME280;66426;51.454;7.266;2023-08-01T00:55:16;98432.50;;;15.46;nan
77360;BME280;66426;51.454;7.266;2023-08-01T00:56:17;98433.03;;;15.50;nan
77360;BME280;66426;51.454;7.266;2023-08-01T00:57:19;98428.34;;;15.42;nan
77360;BME280;66426;51.454;7.266;2023-08-01T00:58:20;98432.63;;;15.45;nan
77360;BME280;66426;51.454;7.266;2023-08-01T00:59:21;98423.91;;;15.51;nan
77360;BME280;66426;51.454;7.266;2023-08-01T01:00:22;98428.06;;;15.45;nan
77360;BME280;66426;51.454;7.266;2023-08-01T01:01:23;98435.19;;;15.46;nan
77360;BME280;66426;51.454;7.266;2023-08-01T01:02:24;98441.06;;;15.42;nan
77360;BME280;66426;51.454;7.266;2023-08-01T01:03:25;98435.50;;;15.43;nan
77360;BME280;66426;51.454;7.266;2023-08-01T01:04:26;98434.75;;;15.51;nan
77360;BME280;66426;51.454;7.266;2023-08-01T01:05:28;98429.22;;;15.43;nan
77360;BME280;66426;51.454;7.266;2023-08-01T01:06:32;98424.47;;;15.45;nan
77360;BME280;66426;51.454;7.266;2023-08-01T01:07:35;98423.03;;;15.50;nan
77360;BME280;66426;51.454;7.266;2023-08-01T01:08:37;98425.84;;;15.59;nan
77360;BME280;66426;51.454;7.266;2023-08-01T01:09:38;98416.47;;;15.53;nan
77360;BME280;66426;51.454;7.266;2023-08-01T01:10:39;98407.66;;;15.41;nan
77360;BME280;66426;51.454;7.266;2023-08-01T01:11:40;98410.69;;;15.38;nan
77360;BME280;66426;51.454;7.266;2023-08-01T01:12:42;98408.50;;;15.42;nan
77360;BME280;66426;51.454;7.266;2023-08-01T01:13:43;98410.47;;;15.49;nan
77360;BME280;66426;51.454;7.266;2023-08-01T01:14:44;98401.22;;;15.42;nan
77360;BME280;66426;51.454;7.266;2023-08-01T01:15:45;98405.59;;;15.53;nan
77360;BME280;66426;51.454;7.266;2023-08-01T01:16:45;98403.34;;;15.48;nan
77360;BME280;66426;51.454;7.266;2023-08-01T01:17:46;98400.38;;;15.42;nan
77360;BME280;66426;51.454;7.266;2023-08-01T01:18:47;98397.50;;;15.43;nan
77360;BME280;66426;51.454;7.266;2023-08-01T01:19:48;98406.66;;;15.42;nan
77360;BME280;66426;51.454;7.266;2023-08-01T01:20:50;98398.22;;;15.45;nan
77360;BME280;66426;51.454;7.266;2023-08-01T01:21:51;98394.88;;;15.51;nan
77360;BME280;66426;51.454;7.266;2023-08-01T01:22:52;98394.56;;;15.54;nan
77360;BME280;66426;51.454;7.266;2023-08-01T01:23:54;98388.69;;;15.59;nan
77360;BME280;66426;51.454;7.266;2023-08-01T01:24:55;98401.88;;;15.54;nan
77360;BME280;66426;51.454;7.266;2023-08-01T01:25:57;98403.88;;;15.52;nan
77360;BME280;66426;51.454;7.266;2023-08-01T01:26:59;98402.56;;;15.56;nan
77360;BME280;66426;51.454;7.266;2023-08-01T01:28:00;98395.03;;;15.50;nan
77360;BME280;66426;51.454;7.266;2023-08-01T01:29:04;98392.88;;;15.53;nan
77360;BME280;66426;51.454;7.266;2023-08-01T01:30:06;98392.31;;;15.50;nan
77360;BME280;66426;51.454;7.266;2023-08-01T01:31:07;98394.19;;;15.49;nan
77360;BME280;66426;51.454;7.266;2023-08-01T01:32:08;98389.59;;;15.50;nan
77360;BME280;66426;51.454;7.266;2023-08-01T01:33:09;98396.19;;;15.47;nan
77360;BME280;66426;51.454;7.266;2023-08-01T01:34:10;98390.16;;;15.53;nan
77360;BME280;66426;51.454;7.266;2023-08-01T01:35:11;98384.03;;;15.51;nan
77360;BME280;66426;51.454;7.266;2023-08-01T01:36:13;98380.31;;;15.52;nan
77360;BME280;66426;51.454;7.266;2023-08-01T01:37:14;98386.22;;;15.48;nan
77360;BME280;66426;51.454;7.266;2023-08-01T01:38:17;98385.91;;;15.51;nan
77360;BME280;66426;51.454;7.266;2023-08-01T01:39:18;98379.00;;;15.57;nan
77360;BME280;66426;51.454;7.266;2023-08-01T01:40:19;98370.84;;;15.57;nan
77360;BME280;66426;51.454;7.266;2023-08-01T01:41:20;98379.69;;;15.59;nan
77360;BME280;66426;51.454;7.266;2023-08-01T01:42:21;98378.59;;;15.51;nan
77360;BME280;66426;51.454;7.266;2023-08-01T01:43:21;98381.72;;;15.57;nan
77360;BME280;66426;51.454;7.266;2023-08-01T01:44:22;98379.84;;;15.57;nan
77360;BME280;66426;51.454;7.266;2023-08-01T01:45:23;98371.41;;;15.60;nan
77360;BME280;66426;51.454;7.266;2023-08-01T01:46:24;98369.38;;;15.62;nan
77360;BME280;66426;51.454;7.266;2023-08-01T01:47:25;98377.91;;;15.49;nan
77360;BME280;66426;51.454;7.266;2023-08-01T01:48:26;98363.16;;;15.52;nan
77360;BME280;66426;51.454;7.266;2023-08-01T01:49:27;98355.91;;;15.52;nan
77360;BME280;66426;51.454;7.266;2023-08-01T01:50:28;98356.44;;;15.56;nan
77360;BME280;66426;51.454;7.266;2023-08-01T01:51:30;98351.59;;;15.50;nan
77360;BME280;66426;51.454;7.266;2023-08-01T01:52:31;98348.59;;;15.53;nan
77360;BME280;66426;51.454;7.266;2023-08-01T01:53:33;98344.63;;;15.47;nan
77360;BME280;66426;51.454;7.266;2023-08-01T01:54:34;98349.06;;;15.48;nan
77360;BME280;66426;51.454;7.266;2023-08-01T01:55:35;98353.91;;;15.45;nan
77360;BME280;66426;51.454;7.266;2023-08-01T01:56:36;98344.88;;;15.54;nan
77360;BME280;66426;51.454;7.266;2023-08-01T01:57:37;98349.69;;;15.60;nan
77360;BME280;66426;51.454;7.266;2023-08-01T01:58:38;98354.56;;;15.57;nan
77360;BME280;66426;51.454;7.266;2023-08-01T01:59:39;98361.00;;;15.56;nan
77360;BME280;66426;51.454;7.266;2023-08-01T02:00:40;98366.44;;;15.56;nan
77360;BME280;66426;51.454;7.266;2023-08-01T02:01:41;98357.97;;;15.59;nan
77360;BME280;66426;51.454;7.266;2023-08-01T02:02:41;98359.53;;;15.61;nan
77360;BME280;66426;51.454;7.266;2023-08-01T02:03:42;98374.19;;;15.50;nan
77360;BME280;66426;51.454;7.266;2023-08-01T02:04:45;98365.41;;;15.39;nan
77360;BME280;66426;51.454;7.266;2023-08-01T02:05:46;98354.81;;;15.45;nan
77360;BME280;66426;51.454;7.266;2023-08-01T02:06:48;98359.22;;;15.46;nan
77360;BME280;66426;51.454;7.266;2023-08-01T02:07:49;98353.66;;;15.48;nan
77360;BME280;66426;51.454;7.266;2023-08-01T02:08:50;98350.69;;;15.41;nan
77360;BME280;66426;51.454;7.266;2023-08-01T02:09:51;98355.19;;;15.32;nan
77360;BME280;66426;51.454;7.266;2023-08-01T02:10:52;98347.66;;;15.44;nan
77360;BME280;66426;51.454;7.266;2023-08-01T02:11:53;98353.53;;;15.40;nan
77360;BME280;66426;51.454;7.266;2023-08-01T02:12:54;98354.41;;;15.40;nan
77360;BME280;66426;51.454;7.266;2023-08-01T02:13:54;98359.34;;;15.45;nan
77360;BME280;66426;51.454;7.266;2023-08-01T02:14:55;98367.50;;;15.45;nan
77360;BME280;66426;51.454;7.266;2023-08-01T02:15:56;98356.25;;;15.40;nan
77360;BME280;66426;51.454;7.266;2023-08-01T02:16:57;98360.13;;;15.37;nan
77360;BME280;66426;51.454;7.266;2023-08-01T02:17:58;98354.16;;;15.34;nan
77360;BME280;66426;51.454;7.266;2023-08-01T02:18:59;98360.03;;;15.29;nan
77360;BME280;66426;51.454;7.266;2023-08-01T02:20:00;98354.75;;;15.27;nan
77360;BME280;66426;51.454;7.266;2023-08-01T02:21:01;98368.31;;;15.27;nan
77360;BME280;66426;51.454;7.266;2023-08-01T02:22:03;98363.19;;;15.24;nan
77360;BME280;66426;51.454;7.266;2023-08-01T02:23:04;98363.94;;;15.17;nan
77360;BME280;66426;51.454;7.266;2023-08-01T02:24:05;98364.13;;;15.15;nan
77360;BME280;66426;51.454;7.266;2023-08-01T02:25:06;98367.56;;;15.07;nan
77360;BME280;66426;51.454;7.266;2023-08-01T02:26:07;98364.25;;;15.14;nan
77360;BME280;66426;51.454;7.266;2023-08-01T02:27:09;98358.97;;;15.12;nan
77360;BME280;66426;51.454;7.266;2023-08-01T02:28:09;98364.81;;;15.17;nan
77360;BME280;66426;51.454;7.266;2023-08-01T02:29:10;98358.75;;;15.05;nan
77360;BME280;66426;51.454;7.266;2023-08-01T02:30:11;98361.34;;;14.97;nan
77360;BME280;66426;51.454;7.266;2023-08-01T02:31:12;98359.31;;;14.99;nan
77360;BME280;66426;51.454;7.266;2023-08-01T02:32:13;98368.47;;;14.98;nan
77360;BME280;66426;51.454;7.266;2023-08-01T02:33:14;98362.22;;;14.98;nan
77360;BME280;66426;51.454;7.266;2023-08-01T02:34:15;98358.06;;;14.94;nan
77360;BME280;66426;51.454;7.266;2023-08-01T02:35:16;98358.47;;;14.99;nan
77360;BME280;66426;51.454;7.266;2023-08-01T02:36:17;98359.91;;;15.03;nan
77360;BME280;66426;51.454;7.266;2023-08-01T02:37:19;98361.19;;;14.99;nan
77360;BME280;66426;51.454;7.266;2023-08-01T02:38:20;98351.81;;;14.93;nan
77360;BME280;66426;51.454;7.266;2023-08-01T02:39:21;98359.88;;;14.75;nan
77360;BME280;66426;51.454;7.266;2023-08-01T02:40:22;98361.97;;;14.81;nan
77360;BME280;66426;51.454;7.266;2023-08-01T02:41:23;98355.69;;;14.91;nan
77360;BME280;66426;51.454;7.266;2023-08-01T02:42:24;98364.81;;;14.80;nan
77360;BME280;66426;51.454;7.266;2023-08-01T02:43:24;98358.97;;;14.84;nan
77360;BME280;66426;51.454;7.266;2023-08-01T02:44:25;98361.72;;;14.75;nan
77360;BME280;66426;51.454;7.266;2023-08-01T02:45:26;98355.00;;;14.79;nan
77360;BME280;66426;51.454;7.266;2023-08-01T02:46:27;98356.13;;;14.86;nan
77360;BME280;66426;51.454;7.266;2023-08-01T02:47:30;98355.69;;;14.91;nan
77360;BME280;66426;51.454;7.266;2023-08-01T02:48:31;98361.69;;;14.84;nan
77360;BME280;66426;51.454;7.266;2023-08-01T02:49:33;98366.13;;;14.85;nan
77360;BME280;66426;51.454;7.266;2023-08-01T02:50:34;98366.53;;;14.91;nan
77360;BME280;66426;51.454;7.266;2023-08-01T02:51:35;98362.09;;;14.89;nan
77360;BME280;66426;51.454;7.266;2023-08-01T02:52:37;98369.38;;;14.89;nan
77360;BME280;66426;51.454;7.266;2023-08-01T02:53:38;98364.38;;;14.84;nan
77360;BME280;66426;51.454;7.266;2023-08-01T02:54:41;98371.22;;;14.88;nan
77360;BME280;66426;51.454;7.266;2023-08-01T02:55:42;98366.25;;;14.84;nan
77360;BME280;66426;51.454;7.266;2023-08-01T02:56:44;98367.44;;;14.72;nan
77360;BME280;66426;51.454;7.266;2023-08-01T02:57:44;98370.44;;;14.69;nan
77360;BME280;66426;51.454;7.266;2023-08-01T02:58:45;98366.69;;;14.79;nan
77360;BME280;66426;51.454;7.266;2023-08-01T02:59:46;98359.88;;;14.75;nan
77360;BME280;66426;51.454;7.266;2023-08-01T03:00:47;98365.41;;;14.83;nan
77360;BME280;66426;51.454;7.266;2023-08-01T03:01:48;98365.31;;;14.75;nan
77360;BME280;66426;51.454;7.266;2023-08-01T03:02:49;98359.69;;;14.86;nan
77360;BME280;66426;51.454;7.266;2023-08-01T03:03:50;98368.25;;;14.82;nan
77360;BME280;66426;51.454;7.266;2023-08-01T03:04:51;98373.84;;;14.80;nan
77360;BME280;66426;51.454;7.266;2023-08-01T03:05:52;98369.66;;;14.86;nan
77360;BME280;66426;51.454;7.266;2023-08-01T03:06:53;98372.69;;;14.83;nan
77360;BME280;66426;51.454;7.266;2023-08-01T03:07:55;98365.38;;;14.93;nan
77360;BME280;66426;51.454;7.266;2023-08-01T03:08:56;98360.66;;;14.95;nan
77360;BME280;66426;51.454;7.266;2023-08-01T03:09:57;98363.94;;;14.89;nan
77360;BME280;66426;51.454;7.266;2023-08-01T03:10:58;98367.06;;;14.94;nan
77360;BME280;66426;51.454;7.266;2023-08-01T03:11:59;98367.06;;;14.94;nan
77360;BME280;66426;51.454;7.266;2023-08-01T03:13:00;98365.63;;;14.90;nan
77360;BME280;66426;51.454;7.266;2023-08-01T03:14:01;98370.38;;;14.88;nan
77360;BME280;66426;51.454;7.266;2023-08-01T03:15:02;98374.06;;;14.87;nan
77360;BME280;66426;51.454;7.266;2023-08-01T03:16:03;98371.50;;;14.95;nan
77360;BME280;66426;51.454;7.266;2023-08-01T03:17:05;98364.94;;;14.98;nan
77360;BME280;66426;51.454;7.266;2023-08-01T03:18:06;98371.91;;;15.00;nan
77360;BME280;66426;51.454;7.266;2023-08-01T03:19:07;98372.75;;;15.01;nan
77360;BME280;66426;51.454;7.266;2023-08-01T03:20:09;98374.13;;;15.05;nan
77360;BME280;66426;51.454;7.266;2023-08-01T03:21:11;98381.31;;;14.96;nan
77360;BME280;66426;51.454;7.266;2023-08-01T03:22:12;98378.41;;;15.07;nan
77360;BME280;66426;51.454;7.266;2023-08-01T03:23:14;98372.97;;;15.07;nan
77360;BME280;66426;51.454;7.266;2023-08-01T03:24:15;98379.28;;;15.08;nan
77360;BME280;66426;51.454;7.266;2023-08-01T03:25:16;98377.41;;;15.08;nan
77360;BME280;66426;51.454;7.266;2023-08-01T03:26:17;98376.84;;;15.05;nan
77360;BME280;66426;51.454;7.266;2023-08-01T03:27:19;98372.59;;;15.02;nan
77360;BME280;66426;51.454;7.266;2023-08-01T03:28:19;98373.06;;;14.98;nan
77360;BME280;66426;51.454;7.266;2023-08-01T03:29:20;98372.75;;;15.01;nan
77360;BME280;66426;51.454;7.266;2023-08-01T03:30:21;98374.22;;;14.95;nan
77360;BME280;66426;51.454;7.266;2023-08-01T03:31:22;98374.66;;;14.91;nan
77360;BME280;66426;51.454;7.266;2023-08-01T03:32:23;98378.22;;;14.91;nan
77360;BME280;66426;51.454;7.266;2023-08-01T03:33:24;98387.91;;;14.94;nan
77360;BME280;66426;51.454;7.266;2023-08-01T03:34:25;98391.47;;;14.94;nan
77360;BME280;66426;51.454;7.266;2023-08-01T03:35:27;98392.19;;;14.96;nan
77360;BME280;66426;51.454;7.266;2023-08-01T03:36:28;98385.91;;;14.96;nan
77360;BME280;66426;51.454;7.266;2023-08-01T03:37:29;98380.03;;;15.00;nan
77360;BME280;66426;51.454;7.266;2023-08-01T03:38:31;98384.13;;;15.04;nan
77360;BME280;66426;51.454;7.266;2023-08-01T03:39:32;98380.28;;;15.07;nan
77360;BME280;66426;51.454;7.266;2023-08-01T03:40:33;98377.03;;;15.03;nan
77360;BME280;66426;51.454;7.266;2023-08-01T03:41:34;98378.19;;;15.01;nan
77360;BME280;66426;51.454;7.266;2023-08-01T03:42:35;98391.44;;;15.04;nan
77360;BME280;66426;51.454;7.266;2023-08-01T03:43:35;98385.59;;;14.99;nan
77360;BME280;66426;51.454;7.266;2023-08-01T03:44:37;98383.03;;;14.97;nan
77360;BME280;66426;51.454;7.266;2023-08-01T03:45:38;98392.44;;;15.03;nan
77360;BME280;66426;51.454;7.266;2023-08-01T03:46:39;98388.66;;;14.86;nan
77360;BME280;66426;51.454;7.266;2023-08-01T03:47:40;98387.78;;;14.95;nan
77360;BME280;66426;51.454;7.266;2023-08-01T03:48:41;98385.91;;;14.96;nan
77360;BME280;66426;51.454;7.266;2023-08-01T03:49:43;98390.88;;;15.00;nan
77360;BME280;66426;51.454;7.266;2023-08-01T03:50:44;98389.16;;;14.99;nan
77360;BME280;66426;51.454;7.266;2023-08-01T03:51:45;98392.31;;;14.95;nan
77360;BME280;66426;51.454;7.266;2023-08-01T03:52:46;98391.44;;;15.04;nan
77360;BME280;66426;51.454;7.266;2023-08-01T03:53:48;98392.44;;;15.03;nan
77360;BME280;66426;51.454;7.266;2023-08-01T03:54:49;98398.31;;;14.98;nan
77360;BME280;66426;51.454;7.266;2023-08-01T03:55:50;98395.75;;;14.97;nan
77360;BME280;66426;51.454;7.266;2023-08-01T03:56:51;98402.19;;;14.96;nan
77360;BME280;66426;51.454;7.266;2023-08-01T03:57:52;98414.41;;;15.00;nan
77360;BME280;66426;51.454;7.266;2023-08-01T03:58:53;98406.88;;;14.94;nan
77360;BME280;66426;51.454;7.266;2023-08-01T03:59:53;98402.22;;;14.86;nan
77360;BME280;66426;51.454;7.266;2023-08-01T04:00:54;98408.63;;;14.85;nan
77360;BME280;66426;51.454;7.266;2023-08-01T04:01:55;98402.91;;;14.88;nan
77360;BME280;66426;51.454;7.266;2023-08-01T04:02:56;98408.75;;;14.93;nan
77360;BME280;66426;51.454;7.266;2023-08-01T04:03:57;98404.88;;;14.96;nan
77360;BME280;66426;51.454;7.266;2023-08-01T04:04:58;98405.19;;;14.93;nan
77360;BME280;66426;51.454;7.266;2023-08-01T04:05:59;98408.59;;;14.95;nan
77360;BME280;66426;51.454;7.266;2023-08-01T04:07:00;98410.13;;;14.97;nan
77360;BME280;66426;51.454;7.266;2023-08-01T04:08:01;98410.00;;;14.99;nan
77360;BME280;66426;51.454;7.266;2023-08-01T04:09:03;98413.03;;;14.96;nan
77360;BME280;66426;51.454;7.266;2023-08-01T04:10:05;98406.75;;;14.95;nan
77360;BME280;66426;51.454;7.266;2023-08-01T04:11:06;98414.00;;;14.95;nan
77360;BME280;66426;51.454;7.266;2023-08-01T04:12:07;98413.59;;;14.89;nan
77360;BME280;66426;51.454;7.266;2023-08-01T04:13:08;98414.44;;;14.90;nan
77360;BME280;66426;51.454;7.266;2023-08-01T04:14:09;98416.31;;;14.89;nan
77360;BME280;66426;51.454;7.266;2023-08-01T04:15:10;98416.03;;;14.93;nan
77360;BME280;66426;51.454;7.266;2023-08-01T04:16:11;98416.94;;;14.74;nan
77360;BME280;66426;51.454;7.266;2023-08-01T04:17:12;98426.78;;;14.75;nan
77360;BME280;66426;51.454;7.266;2023-08-01T04:18:13;98427.66;;;14.75;nan
77360;BME280;66426;51.454;7.266;2023-08-01T04:19:14;98426.09;;;14.73;nan
77360;BME280;66426;51.454;7.266;2023-08-01T04:20:15;98424.22;;;14.73;nan
77360;BME280;66426;51.454;7.266;2023-08-01T04:21:16;98422.38;;;14.74;nan
77360;BME280;66426;51.454;7.266;2023-08-01T04:22:16;98425.63;;;14.77;nan
77360;BME280;66426;51.454;7.266;2023-08-01T04:23:17;98418.19;;;14.79;nan
77360;BME280;66426;51.454;7.266;2023-08-01T04:24:20;98426.53;;;14.68;nan
77360;BME280;66426;51.454;7.266;2023-08-01T04:25:20;98423.66;;;14.70;nan
77360;BME280;66426;51.454;7.266;2023-08-01T04:26:24;98420.53;;;14.64;nan
77360;BME280;66426;51.454;7.266;2023-08-01T04:27:25;98429.91;;;14.70;nan
77360;BME280;66426;51.454;7.266;2023-08-01T04:28:26;98427.78;;;14.74;nan
77360;BME280;66426;51.454;7.266;2023-08-01T04:29:27;98425.50;;;14.69;nan
77360;BME280;66426;51.454;7.266;2023-08-01T04:30:28;98431.50;;;14.73;nan
77360;BME280;66426;51.454;7.266;2023-08-01T04:31:28;98428.81;;;14.73;nan
77360;BME280;66426;51.454;7.266;2023-08-01T04:32:29;98427.19;;;14.70;nan
77360;BME280;66426;51.454;7.266;2023-08-01T04:33:30;98432.50;;;14.72;nan
77360;BME280;66426;51.454;7.266;2023-08-01T04:34:31;98430.09;;;14.69;nan
77360;BME280;66426;51.454;7.266;2023-08-01T04:35:32;98422.94;;;14.67;nan
77360;BME280;66426;51.454;7.266;2023-08-01T04:36:33;98426.78;;;14.65;nan
77360;BME280;66426;51.454;7.266;2023-08-01T04:37:34;98425.22;;;14.62;nan
77360;BME280;66426;51.454;7.266;2023-08-01T04:38:35;98428.22;;;14.69;nan
77360;BME280;66426;51.454;7.266;2023-08-01T04:39:37;98429.50;;;14.65;nan
77360;BME280;66426;51.454;7.266;2023-08-01T04:40:38;98417.69;;;14.66;nan
77360;BME280;66426;51.454;7.266;2023-08-01T04:41:39;98421.94;;;14.69;nan
77360;BME280;66426;51.454;7.266;2023-08-01T04:42:39;98425.94;;;14.64;nan
77360;BME280;66426;51.454;7.266;2023-08-01T04:43:40;98429.25;;;14.58;nan
77360;BME280;66426;51.454;7.266;2023-08-01T04:44:41;98423.50;;;14.52;nan
77360;BME280;66426;51.454;7.266;2023-08-01T04:45:42;98434.50;;;14.60;nan
77360;BME280;66426;51.454;7.266;2023-08-01T04:46:43;98438.22;;;14.59;nan
77360;BME280;66426;51.454;7.266;2023-08-01T04:47:44;98428.09;;;14.61;nan
77360;BME280;66426;51.454;7.266;2023-08-01T04:48:45;98432.50;;;14.62;nan
77360;BME280;66426;51.454;7.266;2023-08-01T04:49:46;98426.97;;;14.63;nan
77360;BME280;66426;51.454;7.266;2023-08-01T04:50:47;98422.38;;;14.64;nan
77360;BME280;66426;51.454;7.266;2023-08-01T04:51:48;98429.97;;;14.60;nan
77360;BME280;66426;51.454;7.266;2023-08-01T04:52:49;98424.69;;;14.59;nan
77360;BME280;66426;51.454;7.266;2023-08-01T04:53:50;98429.66;;;14.63;nan
77360;BME280;66426;51.454;7.266;2023-08-01T04:54:52;98426.13;;;14.53;nan
77360;BME280;66426;51.454;7.266;2023-08-01T04:55:53;98417.56;;;14.58;nan
77360;BME280;66426;51.454;7.266;2023-08-01T04:56:54;98427.81;;;14.54;nan
77360;BME280;66426;51.454;7.266;2023-08-01T04:57:55;98417.41;;;14.59;nan
77360;BME280;66426;51.454;7.266;2023-08-01T04:58:56;98422.53;;;14.62;nan
77360;BME280;66426;51.454;7.266;2023-08-01T04:59:56;98427.81;;;14.64;nan
77360;BME280;66426;51.454;7.266;2023-08-01T05:00:57;98426.09;;;14.63;nan
77360;BME280;66426;51.454;7.266;2023-08-01T05:01:58;98427.38;;;14.59;nan
77360;BME280;66426;51.454;7.266;2023-08-01T05:02:59;98424.25;;;14.63;nan
77360;BME280;66426;51.454;7.266;2023-08-01T05:04:00;98426.13;;;14.53;nan
77360;BME280;66426;51.454;7.266;2023-08-01T05:05:01;98430.94;;;14.59;nan
77360;BME280;66426;51.454;7.266;2023-08-01T05:06:02;98426.53;;;14.58;nan
77360;BME280;66426;51.454;7.266;2023-08-01T05:07:03;98434.38;;;14.61;nan
77360;BME280;66426;51.454;7.266;2023-08-01T05:08:06;98436.38;;;14.59;nan
77360;BME280;66426;51.454;7.266;2023-08-01T05:09:07;98433.22;;;14.64;nan
77360;BME280;66426;51.454;7.266;2023-08-01T05:10:09;98430.50;;;14.74;nan
77360;BME280;66426;51.454;7.266;2023-08-01T05:11:10;98437.19;;;14.79;nan
77360;BME280;66426;51.454;7.266;2023-08-01T05:12:11;98439.41;;;15.03;nan
77360;BME280;66426;51.454;7.266;2023-08-01T05:13:12;98430.56;;;15.01;nan
77360;BME280;66426;51.454;7.266;2023-08-01T05:14:13;98439.22;;;15.05;nan
77360;BME280;66426;51.454;7.266;2023-08-01T05:15:14;98441.91;;;15.15;nan
77360;BME280;66426;51.454;7.266;2023-08-01T05:16:15;98441.91;;;15.42;nan
77360;BME280;66426;51.454;7.266;2023-08-01T05:17:16;98446.31;;;15.25;nan
77360;BME280;66426;51.454;7.266;2023-08-01T05:18:17;98446.25;;;15.90;nan
77360;BME280;66426;51.454;7.266;2023-08-01T05:19:18;98452.72;;;15.24;nan
77360;BME280;66426;51.454;7.266;2023-08-01T05:20:19;98451.94;;;15.04;nan
77360;BME280;66426;51.454;7.266;2023-08-01T05:21:19;98445.53;;;15.05;nan
77360;BME280;66426;51.454;7.266;2023-08-01T05:22:20;98454.16;;;15.56;nan
77360;BME280;66426;51.454;7.266;2023-08-01T05:23:21;98460.38;;;15.39;nan
77360;BME280;66426;51.454;7.266;2023-08-01T05:24:22;98456.41;;;14.96;nan
77360;BME280;66426;51.454;7.266;2023-08-01T05:25:25;98456.72;;;14.93;nan
77360;BME280;66426;51.454;7.266;2023-08-01T05:26:26;98461.50;;;15.08;nan
77360;BME280;66426;51.454;7.266;2023-08-01T05:27:27;98458.78;;;15.08;nan
77360;BME280;66426;51.454;7.266;2023-08-01T05:28:27;98458.31;;;14.76;nan
77360;BME280;66426;51.454;7.266;2023-08-01T05:29:28;98463.03;;;14.74;nan
77360;BME280;66426;51.454;7.266;2023-08-01T05:30:29;98458.16;;;14.77;nan
77360;BME280;66426;51.454;7.266;2023-08-01T05:31:30;98462.00;;;14.75;nan
77360;BME280;66426;51.454;7.266;2023-08-01T05:32:31;98463.16;;;14.72;nan